Time;durP1;ratioP1;P1;durP2;ratioP2;P2;SDS_P1;SDS_P2;PMS_P1;PMS_P2;Temp;Humidity;BMP_temperature;BMP_pressure;BME280_temperature;BME280_humidity;BME280_pressure;Samples;Min_cycle;Max_cycle;Signal;HPM_P1;HPM_P2
2021/08/25 00:02:09;;;;;;;3.60;2.28;;;16.10;62.00;;;;;;4999481;28;20038;-76
2021/08/25 00:04:39;;;;;;;4.10;2.47;;;16.10;62.30;;;;;;5000146;28;20026;-76
2021/08/25 00:07:08;;;;;;;4.90;2.20;;;16.00;62.50;;;;;;4993728;28;20062;-76
2021/08/25 00:09:35;;;;;;;3.22;2.30;;;16.00;62.50;;;;;;5001727;28;20022;-77
2021/08/25 00:12:00;;;;;;;3.45;2.45;;;16.00;62.80;;;;;;4998098;28;20138;-77
2021/08/25 00:14:27;;;;;;;5.15;2.50;;;15.90;62.90;;;;;;4997045;28;20051;-77
2021/08/25 00:16:52;;;;;;;3.65;2.35;;;15.90;63.10;;;;;;4997798;28;20390;-77
2021/08/25 00:19:18;;;;;;;4.35;2.42;;;15.90;63.30;;;;;;4992554;28;20029;-78
2021/08/25 00:21:43;;;;;;;4.78;2.60;;;15.90;63.70;;;;;;5004613;28;20527;-77
2021/08/25 00:24:09;;;;;;;5.55;2.72;;;15.90;63.90;;;;;;4991051;28;20027;-76
2021/08/25 00:26:34;;;;;;;3.75;2.50;;;15.90;64.10;;;;;;5002384;28;20389;-76
2021/08/25 00:29:00;;;;;;;3.53;2.17;;;15.80;64.20;;;;;;4994069;28;20434;-77
2021/08/25 00:31:25;;;;;;;3.72;2.30;;;15.80;64.30;;;;;;4988662;28;20041;-77
2021/08/25 00:33:52;;;;;;;4.97;2.53;;;15.80;64.50;;;;;;4988780;28;20496;-78
2021/08/25 00:36:17;;;;;;;4.07;2.42;;;15.70;64.80;;;;;;4987944;28;20026;-78
2021/08/25 00:38:43;;;;;;;2.78;2.15;;;15.70;64.90;;;;;;4998459;28;20382;-78
2021/08/25 00:41:08;;;;;;;4.47;2.47;;;15.70;64.90;;;;;;4998243;28;20037;-78
2021/08/25 00:43:34;;;;;;;4.70;3.08;;;15.70;65.10;;;;;;4996345;28;20027;-78
2021/08/25 00:45:59;;;;;;;3.97;2.70;;;15.70;65.40;;;;;;5004599;28;20041;-78
2021/08/25 00:48:25;;;;;;;3.88;2.60;;;15.70;65.60;;;;;;4993023;28;20029;-77
2021/08/25 00:50:51;;;;;;;3.75;2.45;;;15.60;65.70;;;;;;4998141;28;20029;-77
2021/08/25 00:53:19;;;;;;;3.70;2.30;;;15.60;65.80;;;;;;4992595;28;20382;-77
2021/08/25 00:55:44;;;;;;;3.17;2.20;;;15.60;65.80;;;;;;4992895;28;20026;-77
2021/08/25 00:58:10;;;;;;;2.92;2.30;;;15.60;66.00;;;;;;4991366;28;20389;-77
2021/08/25 01:00:48;;;;;;;3.65;2.67;;;15.70;66.10;;;;;;4989780;28;20112;-77
2021/08/25 01:03:17;;;;;;;3.83;2.47;;;15.70;66.40;;;;;;5002563;28;20374;-77
2021/08/25 01:05:44;;;;;;;3.53;2.58;;;15.70;66.40;;;;;;4996671;28;20026;-78
2021/08/25 01:08:14;;;;;;;4.03;2.67;;;15.70;66.50;;;;;;4993316;28;20030;-78
2021/08/25 01:10:40;;;;;;;3.50;2.50;;;15.70;66.50;;;;;;5001422;28;20117;-77
2021/08/25 01:13:09;;;;;;;3.97;2.53;;;15.70;66.50;;;;;;4990405;28;20118;-77
2021/08/25 01:15:38;;;;;;;4.20;2.60;;;15.70;66.50;;;;;;4996023;28;20113;-76
2021/08/25 01:18:08;;;;;;;4.20;2.35;;;15.80;66.60;;;;;;4994604;28;20504;-77
2021/08/25 01:20:35;;;;;;;3.90;2.20;;;15.80;66.50;;;;;;4993237;28;20028;-76
2021/08/25 01:23:01;;;;;;;3.90;2.53;;;15.80;66.40;;;;;;4996172;28;20019;-76
2021/08/25 01:25:28;;;;;;;4.60;2.90;;;15.80;66.40;;;;;;4998905;28;20027;-76
2021/08/25 01:27:57;;;;;;;4.30;2.50;;;15.80;66.40;;;;;;4989376;28;20042;-77
2021/08/25 01:30:28;;;;;;;4.80;2.75;;;15.80;66.50;;;;;;5002374;28;20101;-76
2021/08/25 01:32:54;;;;;;;4.82;2.85;;;15.80;66.70;;;;;;4994177;28;20030;-76
2021/08/25 01:35:21;;;;;;;4.43;2.67;;;15.80;66.70;;;;;;5001571;28;20053;-76
2021/08/25 01:37:48;;;;;;;3.20;2.67;;;15.80;66.80;;;;;;4996313;28;20022;-76
2021/08/25 01:40:14;;;;;;;4.70;2.90;;;15.70;66.90;;;;;;4998313;28;20033;-76
2021/08/25 01:42:43;;;;;;;4.07;2.72;;;15.70;67.00;;;;;;4992703;28;20026;-76
2021/08/25 01:45:09;;;;;;;3.58;2.58;;;15.70;67.10;;;;;;4993417;28;20030;-78
2021/08/25 01:47:34;;;;;;;3.85;2.60;;;15.70;67.10;;;;;;4997663;28;20088;-78
2021/08/25 01:50:00;;;;;;;3.65;2.53;;;15.70;67.20;;;;;;4996648;28;20035;-79
2021/08/25 01:52:25;;;;;;;4.25;2.83;;;15.70;67.10;;;;;;4991317;28;20034;-77
2021/08/25 01:54:54;;;;;;;3.95;2.60;;;15.70;67.20;;;;;;4991285;28;20029;-77
2021/08/25 01:57:20;;;;;;;3.78;2.63;;;15.70;67.20;;;;;;4989188;28;20078;-77
2021/08/25 01:59:46;;;;;;;3.47;2.40;;;15.70;67.30;;;;;;5002825;28;20477;-74
2021/08/25 02:02:11;;;;;;;3.38;2.60;;;15.70;67.40;;;;;;4992435;28;20068;-75
2021/08/25 02:04:37;;;;;;;4.47;2.90;;;15.70;67.40;;;;;;5003078;28;20405;-75
2021/08/25 02:07:03;;;;;;;4.95;2.65;;;15.60;67.50;;;;;;4990159;28;20092;-75
2021/08/25 02:09:29;;;;;;;5.00;2.90;;;15.60;67.60;;;;;;5012792;28;20469;-75
2021/08/25 02:11:54;;;;;;;3.83;2.50;;;15.60;67.60;;;;;;5011211;28;20146;-75
2021/08/25 02:14:20;;;;;;;3.78;2.40;;;15.60;67.60;;;;;;4997325;28;20026;-75
2021/08/25 02:16:45;;;;;;;3.88;2.70;;;15.60;67.60;;;;;;4991127;28;20494;-75
2021/08/25 02:19:11;;;;;;;3.92;2.55;;;15.60;67.60;;;;;;4992909;28;20030;-75
2021/08/25 02:21:36;;;;;;;3.22;2.45;;;15.60;67.60;;;;;;4997882;28;20084;-75
2021/08/25 02:24:02;;;;;;;3.97;2.53;;;15.60;67.60;;;;;;4994555;28;20030;-76
2021/08/25 02:26:28;;;;;;;4.00;2.60;;;15.60;67.60;;;;;;4996653;28;20451;-74
2021/08/25 02:28:54;;;;;;;3.25;2.40;;;15.60;67.70;;;;;;4994208;28;20034;-74
2021/08/25 02:31:21;;;;;;;4.07;2.60;;;15.60;67.70;;;;;;5001930;28;20093;-74
2021/08/25 02:33:48;;;;;;;4.32;2.65;;;15.60;67.70;;;;;;4998281;28;20489;-75
2021/08/25 02:36:15;;;;;;;3.10;2.42;;;15.60;67.70;;;;;;4991199;28;20093;-75
2021/08/25 02:38:40;;;;;;;3.75;2.22;;;15.60;67.60;;;;;;4997153;28;20022;-75
2021/08/25 02:41:09;;;;;;;2.95;2.22;;;15.60;67.70;;;;;;4993277;28;20126;-75
2021/08/25 02:43:35;;;;;;;3.70;2.42;;;15.60;67.70;;;;;;5004624;28;20049;-76
2021/08/25 02:46:01;;;;;;;4.28;2.60;;;15.50;67.50;;;;;;4993290;28;20042;-75
2021/08/25 02:48:26;;;;;;;3.85;2.47;;;15.50;67.50;;;;;;4987626;28;20031;-75
2021/08/25 02:50:52;;;;;;;3.60;2.67;;;15.50;67.50;;;;;;4991232;28;20034;-76
2021/08/25 02:53:18;;;;;;;4.95;2.85;;;15.50;67.50;;;;;;4994181;28;20054;-75
2021/08/25 02:55:46;;;;;;;4.57;2.92;;;15.50;67.60;;;;;;4991038;28;20134;-75
2021/08/25 02:58:13;;;;;;;4.47;2.90;;;15.50;67.80;;;;;;4992810;28;20117;-76
2021/08/25 03:00:39;;;;;;;4.15;2.80;;;15.40;67.80;;;;;;4990812;28;20022;-75
2021/08/25 03:03:05;;;;;;;4.00;2.80;;;15.40;67.90;;;;;;4996956;28;20037;-75
2021/08/25 03:05:31;;;;;;;4.40;3.20;;;15.40;68.00;;;;;;4994864;28;20541;-75
2021/08/25 03:07:56;;;;;;;4.30;2.80;;;15.40;68.10;;;;;;5004005;28;20030;-75
2021/08/25 03:10:22;;;;;;;4.85;3.13;;;15.40;68.20;;;;;;4993483;28;20026;-76
2021/08/25 03:12:47;;;;;;;3.78;3.00;;;15.30;68.20;;;;;;4990875;28;20038;-76
2021/08/25 03:15:13;;;;;;;4.07;2.63;;;15.30;68.20;;;;;;4995753;28;20105;-74
2021/08/25 03:17:39;;;;;;;4.10;2.55;;;15.30;68.20;;;;;;4992876;28;20038;-75
2021/08/25 03:20:08;;;;;;;5.05;2.75;;;15.30;68.20;;;;;;4988309;28;20362;-75
2021/08/25 03:22:34;;;;;;;3.20;2.35;;;15.30;68.20;;;;;;4984761;28;20121;-75
2021/08/25 03:25:00;;;;;;;4.28;2.90;;;15.30;68.30;;;;;;4992936;28;20072;-76
2021/08/25 03:27:26;;;;;;;4.78;3.00;;;15.30;68.30;;;;;;4998712;28;20092;-75
2021/08/25 03:29:51;;;;;;;4.38;3.10;;;15.30;68.30;;;;;;4993096;28;20465;-75
2021/08/25 03:32:17;;;;;;;3.80;3.10;;;15.30;68.40;;;;;;4998175;28;20030;-76
2021/08/25 03:34:42;;;;;;;5.50;3.10;;;15.30;68.40;;;;;;5004522;28;20033;-75
2021/08/25 03:37:08;;;;;;;4.80;3.00;;;15.30;68.50;;;;;;4991358;28;20540;-75
2021/08/25 03:39:33;;;;;;;3.65;2.60;;;15.30;68.50;;;;;;4997250;28;20404;-75
2021/08/25 03:41:59;;;;;;;4.18;2.90;;;15.20;68.50;;;;;;5007589;28;20026;-75
2021/08/25 03:44:25;;;;;;;5.07;3.10;;;15.20;68.50;;;;;;4993864;28;20022;-75
2021/08/25 03:46:51;;;;;;;4.75;3.17;;;15.20;68.70;;;;;;4998762;28;20061;-75
2021/08/25 03:49:16;;;;;;;4.18;2.97;;;15.20;68.70;;;;;;4993590;28;20014;-76
2021/08/25 03:51:42;;;;;;;4.28;3.20;;;15.20;68.70;;;;;;4993442;28;20125;-76
2021/08/25 03:54:08;;;;;;;3.63;2.80;;;15.20;68.80;;;;;;4991991;28;20105;-76
2021/08/25 03:56:33;;;;;;;4.85;3.03;;;15.20;68.80;;;;;;4992897;28;20058;-76
2021/08/25 03:58:59;;;;;;;4.32;3.22;;;15.20;68.90;;;;;;5001572;28;20053;-76
2021/08/25 04:01:24;;;;;;;4.32;3.08;;;15.20;68.90;;;;;;4990367;28;20027;-75
2021/08/25 04:03:50;;;;;;;4.47;2.72;;;15.20;69.00;;;;;;4997324;28;20038;-75
2021/08/25 04:06:15;;;;;;;4.75;3.40;;;15.20;68.90;;;;;;5000783;28;20161;-75
2021/08/25 04:08:41;;;;;;;3.97;2.85;;;15.10;68.90;;;;;;4994405;28;20034;-75
2021/08/25 04:11:06;;;;;;;4.05;2.90;;;15.10;69.00;;;;;;5001987;28;20022;-75
2021/08/25 04:13:32;;;;;;;5.28;3.60;;;15.10;69.00;;;;;;4999754;28;20014;-76
2021/08/25 04:15:58;;;;;;;6.07;3.03;;;15.20;69.10;;;;;;4991593;28;20172;-76
2021/08/25 04:18:25;;;;;;;4.45;3.05;;;15.10;69.00;;;;;;4995918;28;20041;-74
2021/08/25 04:20:51;;;;;;;4.32;2.88;;;15.10;69.10;;;;;;4993494;28;20045;-75
2021/08/25 04:23:16;;;;;;;4.50;3.10;;;15.10;69.10;;;;;;4999202;28;20022;-75
2021/08/25 04:25:42;;;;;;;4.18;2.70;;;15.10;69.10;;;;;;4993443;28;20107;-75
2021/08/25 04:28:08;;;;;;;4.65;3.08;;;15.10;69.20;;;;;;4998576;28;20061;-75
2021/08/25 04:30:34;;;;;;;3.50;2.55;;;15.10;69.30;;;;;;5000749;28;20251;-74
2021/08/25 04:33:00;;;;;;;3.85;2.67;;;15.10;69.30;;;;;;4991763;28;20485;-75
2021/08/25 04:35:25;;;;;;;4.50;2.97;;;15.10;69.30;;;;;;5003318;28;20054;-74
2021/08/25 04:37:51;;;;;;;4.45;2.67;;;15.10;69.30;;;;;;4996242;28;20037;-75
2021/08/25 04:40:16;;;;;;;4.53;2.97;;;15.10;69.30;;;;;;5000050;28;20034;-76
2021/08/25 04:42:42;;;;;;;4.47;2.85;;;15.00;69.30;;;;;;4998660;28;20493;-76
2021/08/25 04:45:08;;;;;;;4.55;2.88;;;15.00;69.30;;;;;;4993199;28;20046;-76
2021/08/25 04:47:33;;;;;;;4.53;3.22;;;15.00;69.30;;;;;;5001197;28;20030;-76
2021/08/25 04:49:59;;;;;;;4.40;3.00;;;15.00;69.40;;;;;;4997941;28;20034;-76
2021/08/25 04:52:25;;;;;;;5.10;3.20;;;15.00;69.40;;;;;;4988634;28;20393;-75
2021/08/25 04:54:50;;;;;;;4.07;3.05;;;15.00;69.50;;;;;;4989349;28;20034;-76
2021/08/25 04:57:16;;;;;;;4.05;3.00;;;14.90;69.50;;;;;;4993249;28;20010;-75
2021/08/25 04:59:41;;;;;;;3.90;2.70;;;14.90;69.60;;;;;;5001333;28;20041;-76
2021/08/25 05:02:07;;;;;;;4.28;2.63;;;14.90;69.70;;;;;;4992933;28;20026;-75
2021/08/25 05:04:32;;;;;;;3.97;2.95;;;14.90;69.70;;;;;;4999583;28;20032;-76
2021/08/25 05:06:58;;;;;;;4.10;2.92;;;14.90;69.70;;;;;;4997171;28;20385;-76
2021/08/25 05:09:23;;;;;;;5.40;3.05;;;14.90;69.80;;;;;;4987102;28;20113;-76
2021/08/25 05:11:49;;;;;;;4.65;3.38;;;14.90;69.80;;;;;;4997438;28;20023;-76
2021/08/25 05:14:14;;;;;;;4.00;2.88;;;15.00;69.80;;;;;;4990691;28;20022;-75
2021/08/25 05:16:40;;;;;;;4.13;2.90;;;15.00;69.60;;;;;;4990050;28;20046;-75
2021/08/25 05:19:05;;;;;;;5.22;3.33;;;15.10;69.60;;;;;;4989338;28;20481;-75
2021/08/25 05:21:31;;;;;;;3.58;2.70;;;15.20;69.50;;;;;;4985698;28;20042;-74
2021/08/25 05:23:56;;;;;;;4.93;3.20;;;15.20;69.40;;;;;;4994203;28;20035;-75
2021/08/25 05:26:22;;;;;;;3.83;2.72;;;15.30;69.40;;;;;;4993438;28;20042;-75
2021/08/25 05:28:48;;;;;;;4.80;3.10;;;15.40;69.40;;;;;;4988305;28;20030;-75
2021/08/25 05:31:13;;;;;;;4.10;2.88;;;15.50;69.20;;;;;;4989900;28;20033;-75
2021/08/25 05:33:39;;;;;;;3.70;2.67;;;15.90;69.00;;;;;;4996966;28;20105;-75
2021/08/25 05:36:04;;;;;;;4.18;3.15;;;17.10;67.10;;;;;;5002514;28;20445;-75
2021/08/25 05:38:30;;;;;;;4.35;3.03;;;18.30;64.40;;;;;;4992386;28;20027;-76
2021/08/25 05:40:55;;;;;;;5.32;3.40;;;19.40;61.90;;;;;;4988732;28;20631;-75
2021/08/25 05:43:21;;;;;;;4.63;3.13;;;20.30;59.80;;;;;;4996052;28;20081;-75
2021/08/25 05:45:46;;;;;;;5.13;3.50;;;21.10;58.40;;;;;;4987179;28;20034;-76
2021/08/25 05:48:12;;;;;;;5.28;3.03;;;21.40;57.40;;;;;;4993071;28;20022;-76
2021/08/25 05:50:37;;;;;;;4.30;3.17;;;21.00;57.40;;;;;;4995012;28;20046;-76
2021/08/25 05:53:03;;;;;;;4.25;2.78;;;20.40;58.30;;;;;;4990496;28;20042;-76
2021/08/25 05:55:28;;;;;;;3.92;2.90;;;19.80;59.40;;;;;;4993042;28;20023;-76
2021/08/25 05:57:54;;;;;;;5.20;3.10;;;19.40;60.70;;;;;;4987905;28;20093;-75
2021/08/25 06:00:20;;;;;;;4.22;3.10;;;19.00;61.60;;;;;;4993391;28;20061;-76
2021/08/25 06:02:46;;;;;;;4.95;2.97;;;18.60;62.60;;;;;;4994650;28;20030;-75
2021/08/25 06:05:13;;;;;;;3.92;2.67;;;18.40;63.40;;;;;;4990666;28;20029;-75
2021/08/25 06:07:40;;;;;;;4.07;2.67;;;19.00;63.20;;;;;;4994928;28;20093;-76
2021/08/25 06:10:06;;;;;;;3.90;2.58;;;20.30;60.80;;;;;;4989870;28;20062;-76
2021/08/25 06:12:32;;;;;;;3.90;2.78;;;21.70;58.00;;;;;;4989436;28;20034;-78
2021/08/25 06:14:58;;;;;;;4.32;2.67;;;22.80;55.70;;;;;;4989906;28;20018;-75
2021/08/25 06:17:23;;;;;;;5.15;2.90;;;23.70;53.70;;;;;;4991586;28;20157;-76
2021/08/25 06:19:49;;;;;;;4.10;2.63;;;24.60;52.10;;;;;;4991437;28;20479;-76
2021/08/25 06:22:14;;;;;;;3.78;2.53;;;25.10;50.80;;;;;;4991427;28;20068;-76
2021/08/25 06:24:40;;;;;;;4.63;2.67;;;25.40;50.40;;;;;;4996151;28;20153;-77
2021/08/25 06:27:06;;;;;;;4.10;2.70;;;26.10;49.60;;;;;;4989758;28;20034;-77
2021/08/25 06:29:31;;;;;;;4.88;2.80;;;26.60;48.60;;;;;;4972432;28;20022;-77
2021/08/25 06:31:57;;;;;;;3.42;2.10;;;27.10;47.80;;;;;;4987346;28;20022;-77
2021/08/25 06:34:23;;;;;;;4.20;2.53;;;27.50;47.20;;;;;;4997401;28;20026;-78
2021/08/25 06:36:48;;;;;;;3.22;2.33;;;27.90;46.60;;;;;;4992886;28;20026;-77
2021/08/25 06:39:14;;;;;;;4.20;2.60;;;28.30;45.90;;;;;;4989868;28;20547;-77
2021/08/25 06:41:40;;;;;;;3.70;2.63;;;28.80;45.00;;;;;;4996197;28;20358;-77
2021/08/25 06:44:06;;;;;;;5.15;2.35;;;28.90;44.90;;;;;;4999885;28;20027;-76
2021/08/25 06:46:31;;;;;;;3.58;2.15;;;29.00;44.80;;;;;;4985166;28;20125;-78
2021/08/25 06:48:57;;;;;;;3.58;2.10;;;29.00;43.80;;;;;;5003528;28;20145;-79
2021/08/25 06:51:23;;;;;;;2.63;1.98;;;29.20;43.70;;;;;;4990106;28;20363;-79
2021/08/25 06:53:48;;;;;;;2.75;2.20;;;29.30;43.30;;;;;;4998766;28;20026;-78
2021/08/25 06:56:13;;;;;;;3.53;2.17;;;29.60;43.20;;;;;;4996002;28;20105;-78
2021/08/25 06:58:39;;;;;;;3.67;2.50;;;29.70;42.70;;;;;;4996454;28;20029;-77
2021/08/25 07:01:05;;;;;;;3.35;2.42;;;30.00;42.40;;;;;;4990728;28;20053;-77
2021/08/25 07:03:30;;;;;;;2.72;2.13;;;30.30;41.70;;;;;;4996541;28;20488;-78
2021/08/25 07:05:56;;;;;;;2.80;2.20;;;30.60;41.60;;;;;;4995070;28;20038;-79
2021/08/25 07:08:21;;;;;;;3.65;2.50;;;31.00;41.10;;;;;;5004532;28;20033;-78
2021/08/25 07:10:47;;;;;;;3.70;2.35;;;31.10;40.50;;;;;;4999671;28;20023;-80
2021/08/25 07:13:13;;;;;;;4.78;2.55;;;31.40;40.10;;;;;;4989853;28;20038;-78
2021/08/25 07:15:38;;;;;;;4.85;2.22;;;31.40;39.50;;;;;;4991937;28;20069;-80
2021/08/25 07:18:04;;;;;;;3.17;2.25;;;31.80;39.50;;;;;;4994623;28;20480;-77
2021/08/25 07:20:29;;;;;;;3.28;2.40;;;31.70;39.40;;;;;;4988379;28;20030;-78
2021/08/25 07:22:55;;;;;;;2.97;2.00;;;31.80;39.20;;;;;;4994220;28;20029;-77
2021/08/25 07:25:21;;;;;;;2.65;1.80;;;32.00;38.50;;;;;;4990879;28;20018;-78
2021/08/25 07:27:46;;;;;;;2.53;1.88;;;31.80;38.50;;;;;;4996020;28;20121;-78
2021/08/25 07:30:12;;;;;;;3.50;2.03;;;32.00;38.30;;;;;;4998131;28;20030;-78
2021/08/25 07:32:39;;;;;;;2.55;1.73;;;32.40;38.10;;;;;;4988454;28;20027;-78
2021/08/25 07:35:07;;;;;;;2.10;1.48;;;32.50;37.60;;;;;;5000526;28;20018;-78
2021/08/25 07:37:33;;;;;;;2.47;1.80;;;32.50;37.60;;;;;;4992472;28;20037;-78
2021/08/25 07:39:58;;;;;;;2.22;1.60;;;32.50;37.20;;;;;;4997782;28;20481;-78
2021/08/25 07:42:24;;;;;;;4.20;2.03;;;32.60;37.20;;;;;;4994457;28;20030;-78
2021/08/25 07:44:49;;;;;;;2.97;1.83;;;32.50;37.00;;;;;;4993833;28;20511;-78
2021/08/25 07:47:15;;;;;;;2.97;1.83;;;32.40;37.10;;;;;;5001585;28;20043;-78
2021/08/25 07:49:40;;;;;;;2.70;1.90;;;32.40;37.20;;;;;;4988945;28;20014;-78
2021/08/25 07:52:06;;;;;;;2.83;1.80;;;32.10;37.20;;;;;;4993518;28;20029;-78
2021/08/25 07:54:31;;;;;;;2.75;1.67;;;31.90;37.60;;;;;;4992319;28;20026;-78
2021/08/25 07:56:57;;;;;;;2.15;1.73;;;32.10;37.50;;;;;;4991160;28;20030;-78
2021/08/25 07:59:22;;;;;;;2.28;1.55;;;32.40;36.80;;;;;;4995373;28;20414;-78
2021/08/25 08:01:48;;;;;;;2.33;1.75;;;32.60;36.50;;;;;;4993802;28;20117;-78
2021/08/25 08:04:14;;;;;;;2.40;1.52;;;32.60;36.40;;;;;;5000492;28;20024;-78
2021/08/25 08:06:39;;;;;;;2.08;1.25;;;32.70;35.80;;;;;;4996160;28;20034;-78
2021/08/25 08:09:05;;;;;;;1.85;1.50;;;32.90;35.10;;;;;;4992032;28;20069;-77
2021/08/25 08:11:30;;;;;;;2.20;1.77;;;32.70;35.50;;;;;;5002015;28;20034;-77
2021/08/25 08:13:56;;;;;;;2.55;1.45;;;32.90;35.50;;;;;;4991253;28;20041;-78
2021/08/25 08:16:22;;;;;;;2.35;1.65;;;32.90;35.50;;;;;;5000180;28;20034;-78
2021/08/25 08:19:33;;;;;;;2.50;1.70;;;32.70;36.00;;;;;;4994833;28;20532;-78
2021/08/25 08:21:38;;;;;;;2.42;1.80;;;32.80;36.10;;;;;;4991209;28;20036;-78
2021/08/25 08:24:03;;;;;;;2.20;1.60;;;32.90;36.00;;;;;;4987380;28;20105;-78
2021/08/25 08:26:29;;;;;;;3.42;1.70;;;32.80;36.10;;;;;;4991713;28;20662;-78
2021/08/25 08:28:56;;;;;;;2.03;1.55;;;32.50;36.30;;;;;;4980750;28;20027;-77
2021/08/25 08:31:21;;;;;;;2.38;1.60;;;32.20;36.30;;;;;;4990534;28;20038;-78
2021/08/25 08:33:47;;;;;;;1.80;1.40;;;31.90;36.50;;;;;;4991636;28;20749;-77
2021/08/25 08:36:12;;;;;;;2.80;1.70;;;31.70;36.90;;;;;;4992917;28;20407;-77
2021/08/25 08:38:38;;;;;;;2.45;1.73;;;31.00;37.10;;;;;;4989864;28;20072;-77
2021/08/25 08:41:03;;;;;;;1.55;1.40;;;30.60;38.10;;;;;;4986193;28;20254;-76
2021/08/25 08:43:29;;;;;;;3.15;1.50;;;30.20;38.90;;;;;;4991419;28;20030;-78
2021/08/25 08:45:55;;;;;;;2.90;1.60;;;29.80;39.60;;;;;;4997389;28;20027;-76
2021/08/25 08:48:21;;;;;;;3.50;1.63;;;29.20;40.30;;;;;;4992761;28;20373;-77
2021/08/25 08:50:47;;;;;;;2.08;1.50;;;28.60;41.10;;;;;;4995819;28;20030;-76
2021/08/25 08:53:16;;;;;;;1.75;1.20;;;27.90;41.90;;;;;;4989967;28;20034;-76
2021/08/25 08:55:42;;;;;;;2.97;1.80;;;27.50;42.80;;;;;;4984243;28;20030;-76
2021/08/25 08:58:08;;;;;;;1.40;1.20;;;26.90;43.50;;;;;;4995375;28;20084;-75
2021/08/25 09:00:34;;;;;;;2.33;1.55;;;26.40;44.10;;;;;;4991401;28;20038;-76
2021/08/25 09:03:00;;;;;;;2.42;1.60;;;25.80;44.20;;;;;;4985954;28;20049;-75
2021/08/25 09:05:34;;;;;;;1.88;1.50;;;25.40;44.60;;;;;;4990752;28;20078;-75
2021/08/25 09:08:02;;;;;;;2.30;1.40;;;25.00;44.90;;;;;;4995599;28;20126;-76
2021/08/25 09:10:33;;;;;;;3.47;1.80;;;24.70;45.30;;;;;;4989280;28;20022;-76
2021/08/25 09:13:01;;;;;;;2.92;1.95;;;24.40;45.20;;;;;;4990654;28;20064;-76
2021/08/25 09:15:30;;;;;;;4.47;1.70;;;24.20;45.80;;;;;;4991303;28;20529;-75
2021/08/25 09:18:08;;;;;;;2.58;1.50;;;24.20;46.30;;;;;;4981766;28;20041;-76
2021/08/25 09:20:41;;;;;;;1.80;1.20;;;24.20;46.70;;;;;;4983760;28;20027;-75
2021/08/25 09:23:13;;;;;;;1.95;1.45;;;24.30;46.90;;;;;;4986527;28;20414;-75
2021/08/25 09:25:41;;;;;;;2.47;1.45;;;24.30;46.40;;;;;;4986753;28;20080;-76
2021/08/25 09:28:09;;;;;;;1.70;1.38;;;24.30;46.20;;;;;;4989334;28;20022;-75
2021/08/25 09:31:07;;;;;;;2.60;2.08;;;24.30;46.40;;;;;;4988588;28;20062;-75
2021/08/25 09:33:38;;;;;;;2.40;1.65;;;24.20;46.00;;;;;;4984673;28;20027;-76
2021/08/25 09:36:06;;;;;;;1.95;1.42;;;24.10;46.30;;;;;;4988660;28;20030;-75
2021/08/25 09:38:33;;;;;;;1.35;1.10;;;24.00;46.40;;;;;;4983906;28;20108;-78
2021/08/25 09:41:10;;;;;;;2.53;1.60;;;24.00;46.40;;;;;;4980559;28;20354;-78
2021/08/25 09:43:36;;;;;;;2.03;1.50;;;24.00;46.10;;;;;;4989433;28;20018;-76
2021/08/25 09:46:03;;;;;;;2.75;1.85;;;24.00;45.80;;;;;;4986456;28;20030;-79
2021/08/25 09:48:40;;;;;;;2.05;1.50;;;23.90;45.60;;;;;;4985326;28;20536;-77
2021/08/25 09:51:07;;;;;;;2.08;1.50;;;23.90;45.70;;;;;;4979729;28;20035;-78
2021/08/25 09:53:33;;;;;;;2.58;1.60;;;24.00;45.80;;;;;;4984544;28;20015;-78
2021/08/25 09:55:58;;;;;;;1.23;1.10;;;23.90;45.80;;;;;;4984664;28;20037;-78
2021/08/25 09:58:25;;;;;;;2.03;1.38;;;23.90;45.80;;;;;;4983779;28;20055;-77
2021/08/25 10:00:54;;;;;;;2.22;1.67;;;23.90;45.80;;;;;;4985104;28;20118;-77
2021/08/25 10:03:21;;;;;;;2.42;1.50;;;23.90;45.80;;;;;;4984332;28;20500;-77
2021/08/25 10:05:47;;;;;;;2.67;1.80;;;23.80;45.80;;;;;;4991836;28;20034;-78
2021/08/25 10:08:16;;;;;;;2.10;1.55;;;23.90;45.70;;;;;;4994783;28;20442;-78
2021/08/25 10:10:43;;;;;;;2.30;1.60;;;23.90;45.70;;;;;;4987427;28;20054;-77
2021/08/25 10:13:09;;;;;;;1.88;1.30;;;23.90;45.70;;;;;;4988330;28;20112;-78
2021/08/25 10:15:38;;;;;;;2.75;1.80;;;24.00;45.90;;;;;;5005489;28;20168;-77
2021/08/25 10:18:40;;;;;;;2.67;1.75;;;24.10;45.60;;;;;;4996802;28;20404;-77
2021/08/25 10:21:33;;;;;;;2.42;1.83;;;24.10;45.60;;;;;;4999794;28;20346;-78
2021/08/25 10:24:05;;;;;;;2.10;1.30;;;24.10;45.40;;;;;;4999157;28;20033;-79
2021/08/25 10:26:32;;;;;;;2.53;1.55;;;24.10;45.30;;;;;;4999982;28;20041;-78
2021/08/25 10:29:09;;;;;;;3.78;1.70;;;24.10;45.20;;;;;;4999808;28;20030;-79
2021/08/25 10:31:51;;;;;;;2.33;1.65;;;24.00;45.20;;;;;;5004860;28;20030;-79
2021/08/25 10:34:27;;;;;;;1.60;1.38;;;24.00;45.20;;;;;;4997274;28;20046;-80
2021/08/25 10:37:24;;;;;;;2.38;1.70;;;23.90;45.00;;;;;;5000538;28;20038;-80
2021/08/25 10:39:56;;;;;;;2.22;1.60;;;23.90;45.10;;;;;;4992763;28;20393;-78
2021/08/25 10:42:41;;;;;;;2.88;1.70;;;23.90;45.20;;;;;;5001997;28;20022;-77
2021/08/25 10:45:08;;;;;;;2.28;1.83;;;23.90;45.00;;;;;;4997968;28;20026;-77
2021/08/25 10:47:59;;;;;;;2.33;1.52;;;23.90;45.40;;;;;;5004322;28;20397;-78
2021/08/25 10:50:49;;;;;;;1.87;1.43;;;24.00;45.70;;;;;;4994902;28;20117;-78
2021/08/25 10:53:30;;;;;;;4.07;2.13;;;24.00;45.80;;;;;;4984570;28;20293;-78
2021/08/25 10:56:18;;;;;;;2.53;1.83;;;23.90;45.70;;;;;;4992472;28;20049;-78
2021/08/25 10:58:45;;;;;;;3.03;1.92;;;23.80;46.00;;;;;;4998216;28;20089;-80
2021/08/25 11:01:34;;;;;;;2.55;1.73;;;23.90;46.40;;;;;;4995151;28;20029;-78
2021/08/25 11:04:24;;;;;;;3.15;1.70;;;24.00;46.60;;;;;;4987510;28;20050;-78
2021/08/25 11:07:09;;;;;;;1.90;1.52;;;24.20;46.70;;;;;;4992130;28;20057;-77
2021/08/25 11:09:36;;;;;;;1.92;1.52;;;24.20;46.70;;;;;;4992386;28;20157;-77
2021/08/25 11:12:04;;;;;;;2.55;1.75;;;24.40;46.70;;;;;;5001590;28;20073;-78
2021/08/25 11:14:32;;;;;;;2.42;1.75;;;24.50;46.50;;;;;;4986807;28;20031;-77
2021/08/25 11:17:04;;;;;;;2.50;1.50;;;24.60;46.30;;;;;;5001895;28;20429;-77
2021/08/25 11:19:33;;;;;;;2.45;1.80;;;24.70;46.40;;;;;;5005897;28;20030;-85
2021/08/25 11:22:00;;;;;;;3.40;2.22;;;24.50;46.70;;;;;;5000166;28;20027;-87
2021/08/25 11:24:41;;;;;;;3.05;2.30;;;24.30;47.10;;;;;;4994100;28;20019;-88
2021/08/25 11:27:21;;;;;;;2.47;1.80;;;24.10;47.50;;;;;;4996720;28;20038;-87
2021/08/25 11:30:08;;;;;;;2.53;1.70;;;24.10;47.80;;;;;;4991880;28;20036;-86
2021/08/25 11:32:36;;;;;;;3.22;1.92;;;24.30;47.80;;;;;;4999837;28;20234;-84
2021/08/25 11:35:02;;;;;;;3.95;2.22;;;24.50;47.70;;;;;;5004092;28;20052;-85
2021/08/25 11:37:27;;;;;;;2.67;2.08;;;24.50;47.50;;;;;;4995486;28;20022;-85
2021/08/25 11:40:03;;;;;;;3.50;2.08;;;24.40;47.60;;;;;;4985943;28;20084;-84
2021/08/25 11:42:36;;;;;;;3.90;2.20;;;24.40;47.60;;;;;;4991006;28;20769;-85
2021/08/25 11:45:22;;;;;;;3.47;2.22;;;24.40;47.50;;;;;;5004531;28;20038;-85
2021/08/25 11:47:49;;;;;;;2.45;1.80;;;24.40;47.50;;;;;;5000967;28;20508;-86
2021/08/25 11:50:16;;;;;;;3.67;2.28;;;24.50;47.40;;;;;;4992340;28;20026;-85
2021/08/25 11:52:42;;;;;;;3.17;1.83;;;24.60;47.10;;;;;;4997045;28;20048;-86
2021/08/25 11:55:09;;;;;;;3.38;2.40;;;24.50;46.90;;;;;;4995280;28;20062;-86
2021/08/25 11:57:46;;;;;;;3.00;1.90;;;24.60;46.50;;;;;;5005679;28;20176;-87
2021/08/25 12:00:14;;;;;;;3.78;2.10;;;24.60;46.30;;;;;;4994767;28;20026;-86
2021/08/25 12:03:00;;;;;;;3.38;2.20;;;24.60;46.10;;;;;;5004478;28;20026;-86
2021/08/25 12:05:29;;;;;;;3.15;2.10;;;24.70;45.60;;;;;;4991854;28;20033;-90
2021/08/25 12:08:01;;;;;;;2.50;2.00;;;24.80;45.50;;;;;;4985344;28;20037;-85
2021/08/25 12:10:27;;;;;;;2.10;1.50;;;24.70;44.70;;;;;;4989839;28;20076;-85
2021/08/25 12:12:52;;;;;;;3.35;2.00;;;24.80;45.00;;;;;;4992838;28;20417;-86
2021/08/25 12:15:18;;;;;;;3.03;2.10;;;24.90;44.80;;;;;;4989604;28;20034;-85
2021/08/25 12:17:59;;;;;;;3.30;2.20;;;25.00;45.00;;;;;;4984128;28;20033;-85
2021/08/25 12:20:38;;;;;;;2.60;2.08;;;25.10;45.20;;;;;;4987705;28;20036;-85
2021/08/25 12:23:05;;;;;;;2.30;1.80;;;25.10;45.30;;;;;;4996111;28;20125;-86
2021/08/25 12:25:43;;;;;;;3.58;1.95;;;25.10;45.40;;;;;;4984340;28;20125;-85
2021/08/25 12:28:11;;;;;;;2.72;1.90;;;25.10;45.50;;;;;;4988696;28;20045;-86
2021/08/25 12:30:38;;;;;;;2.95;1.70;;;25.30;45.50;;;;;;5000919;28;20537;-86
2021/08/25 12:33:06;;;;;;;3.13;1.90;;;25.40;45.30;;;;;;4995655;28;20100;-85
2021/08/25 12:35:36;;;;;;;2.95;2.03;;;25.50;45.10;;;;;;4994062;28;20027;-85
2021/08/25 12:38:04;;;;;;;2.38;1.60;;;25.50;45.20;;;;;;5001320;28;20026;-87
2021/08/25 12:40:30;;;;;;;3.03;1.52;;;25.40;45.40;;;;;;4993671;28;20018;-85
2021/08/25 12:42:57;;;;;;;2.67;1.77;;;25.60;45.50;;;;;;5001598;28;20030;-85
2021/08/25 12:45:34;;;;;;;;;;;;;;;;;;;;;
2021/08/25 12:48:50;;;;;;;;;;;;;;;;;;;;;
2021/08/25 12:55:09;;;;;;;3.47;1.60;;;26.00;44.70;;;;;;4948661;28;20089;-85
2021/08/25 12:57:37;;;;;;;2.58;1.60;;;25.90;45.00;;;;;;5001588;28;20053;-83